Charlton Depot, Massachusetts
Current Conditions -  °F | °C
As of 3:54 PM on Tuesday 27 Jan 2015 (Local Time) from KORH Reporting Station
Light Snow Light Snow  
Wind Chill: -3°   Ceiling: 1900
Heat Index: 14°   Visibility: 1.2mi
Dew Point:   Wind: 20mph
Humidity: 80%   Direction: 320°NW
Pressure: 29.48"   Gusts: 29mph
Location:  42.17°N, 71.98°W
Report Text: KORH 272054Z 32017G25KT 1 1/4SM R11/5500VP6000FT -SN OVC019 M10/M13 A2948 RMK AO2 PK WND 34027/2044 SLP003 P0001 60005 T11001128 52006 $
Loading
Personal Weather Stations






























Interactive Weather Map New forecast layout! Learn more

10-Day Weather Forecast

Advertisements
Track Severe Weather on mobile